createdAt,value
2023-05-18T00:01:14.627Z,102727.22
2023-05-18T00:03:42.211Z,102729.00
2023-05-18T00:06:10.261Z,102715.06
2023-05-18T00:08:37.942Z,102703.75
2023-05-18T00:11:05.925Z,102721.19
2023-05-18T00:13:32.692Z,102711.66
2023-05-18T00:15:59.423Z,102728.22
2023-05-18T00:18:27.173Z,102719.50
2023-05-18T00:21:00.111Z,102720.34
2023-05-18T00:23:30.824Z,102712.56
2023-05-18T00:25:58.887Z,102713.47
2023-05-18T00:28:26.441Z,102717.88
2023-05-18T00:30:56.665Z,102729.19
2023-05-18T00:33:23.405Z,102727.41
2023-05-18T00:35:49.949Z,102721.31
2023-05-18T00:38:16.521Z,102728.34
2023-05-18T00:40:43.627Z,102724.81
2023-05-18T00:43:10.776Z,102717.03
2023-05-18T00:45:37.473Z,102716.13
2023-05-18T00:48:04.578Z,102704.78
2023-05-18T00:50:31.952Z,102704.84
2023-05-18T00:52:59.035Z,102688.28
2023-05-18T00:55:27.867Z,102719.66
2023-05-18T00:57:56.545Z,102717.06
2023-05-18T01:00:23.908Z,102722.31
2023-05-18T01:02:51.293Z,102724.94
2023-05-18T01:05:18.152Z,102718.81
2023-05-18T01:07:44.784Z,102702.28
2023-05-18T01:10:13.436Z,102729.34
2023-05-18T01:12:48.138Z,102731.09
2023-05-18T01:15:26.980Z,102718.88
2023-05-18T01:18:22.443Z,102734.59
2023-05-18T01:21:11.163Z,102737.22
2023-05-18T01:23:56.601Z,102738.13
2023-05-18T01:26:29.694Z,102733.75
2023-05-18T01:28:59.299Z,102732.03
2023-05-18T01:31:27.182Z,102708.50
2023-05-18T01:33:53.919Z,102712.00
2023-05-18T01:36:20.809Z,102721.56
2023-05-18T01:38:48.259Z,102696.25
2023-05-18T01:41:28.670Z,102703.28
2023-05-18T01:44:12.413Z,102725.97
2023-05-18T01:47:04.243Z,102727.69
2023-05-18T01:49:38.574Z,102734.69
2023-05-18T01:52:09.004Z,102717.19
2023-05-18T01:54:38.878Z,102709.38
2023-05-18T01:57:08.275Z,102718.97
2023-05-18T01:59:35.328Z,102736.41
2023-05-18T02:02:03.544Z,102734.66
2023-05-18T02:04:30.279Z,102735.53
2023-05-18T02:06:56.933Z,102735.53
2023-05-18T02:09:23.703Z,102741.66
2023-05-18T02:11:50.518Z,102733.81
2023-05-18T02:14:17.112Z,102736.41
2023-05-18T02:16:47.166Z,102731.19
2023-05-18T02:19:15.038Z,102729.44
2023-05-18T02:21:43.637Z,102727.72
2023-05-18T02:24:10.687Z,102717.25
2023-05-18T02:26:37.696Z,102732.06
2023-05-18T02:29:06.421Z,102731.19
2023-05-18T02:31:33.075Z,102736.41
2023-05-18T02:33:59.654Z,102736.44
2023-05-18T02:36:26.235Z,102731.19
2023-05-18T02:38:52.926Z,102734.66
2023-05-18T02:41:19.520Z,102729.44
2023-05-18T02:43:46.057Z,102731.19
2023-05-18T02:46:12.648Z,102733.81
2023-05-18T02:48:39.227Z,102737.28
2023-05-18T02:51:06.001Z,102740.78
2023-05-18T02:53:32.539Z,102732.94
2023-05-18T02:55:59.078Z,102736.44
2023-05-18T02:58:25.894Z,102718.97
2023-05-18T03:00:55.158Z,102744.25
2023-05-18T03:03:23.778Z,102732.91
2023-05-18T03:05:52.921Z,102720.72
2023-05-18T03:08:26.844Z,102725.09
2023-05-18T03:10:53.433Z,102724.22
2023-05-18T03:13:19.964Z,102719.84
2023-05-18T03:15:47.112Z,102712.88
2023-05-18T03:18:13.737Z,102710.25
2023-05-18T03:20:40.725Z,102716.34
2023-05-18T03:23:07.413Z,102712.88
2023-05-18T03:25:37.353Z,102698.03
2023-05-18T03:28:05.528Z,102708.47
2023-05-18T03:30:35.621Z,102712.88
2023-05-18T03:33:02.917Z,102699.78
2023-05-18T03:35:29.925Z,102714.59
2023-05-18T03:37:56.731Z,102715.47
2023-05-18T03:40:25.718Z,102711.13
2023-05-18T03:42:52.364Z,102712.84
2023-05-18T03:45:19.314Z,102697.16
2023-05-18T03:47:46.359Z,102708.47
2023-05-18T03:50:13.331Z,102700.59
2023-05-18T03:52:41.587Z,102708.47
2023-05-18T03:55:08.722Z,102701.50
2023-05-18T03:57:35.375Z,102686.63
2023-05-18T04:00:13.453Z,102709.31
2023-05-18T04:02:40.739Z,102704.97
2023-05-18T04:05:08.022Z,102699.72
2023-05-18T04:07:43.714Z,102704.91
2023-05-18T04:10:12.185Z,102707.53
2023-05-18T04:12:39.603Z,102707.50
2023-05-18T04:15:07.034Z,102676.06
2023-05-18T04:17:34.045Z,102703.09
2023-05-18T04:20:01.998Z,102697.84
2023-05-18T04:22:31.300Z,102687.38
2023-05-18T04:24:57.819Z,102703.06
2023-05-18T04:27:25.066Z,102705.66
2023-05-18T04:29:52.049Z,102708.25
2023-05-18T04:32:19.078Z,102708.25
2023-05-18T04:34:49.545Z,102713.47
2023-05-18T04:37:17.989Z,102716.91
2023-05-18T04:39:44.529Z,102712.56
2023-05-18T04:42:14.035Z,102723.88
2023-05-18T04:44:40.759Z,102718.63
2023-05-18T04:47:08.485Z,102722.13
2023-05-18T04:49:35.117Z,102725.63
2023-05-18T04:52:01.757Z,102734.31
2023-05-18T04:54:32.975Z,102714.28
2023-05-18T04:56:59.558Z,102721.28
2023-05-18T04:59:26.496Z,102737.88
2023-05-18T05:01:53.523Z,102712.56
2023-05-18T05:04:21.614Z,102735.25
2023-05-18T05:06:48.396Z,102731.78
2023-05-18T05:09:15.074Z,102720.44
2023-05-18T05:11:42.288Z,102741.38
2023-05-18T05:14:08.961Z,102736.22
2023-05-18T05:16:36.139Z,102726.59
2023-05-18T05:19:02.762Z,102710.06
2023-05-18T05:21:29.344Z,102742.44
2023-05-18T05:23:55.947Z,102703.28
2023-05-18T05:26:22.663Z,102732.94
2023-05-18T05:28:49.225Z,102739.88
2023-05-18T05:31:15.815Z,102720.72
2023-05-18T05:33:42.471Z,102734.63
2023-05-18T05:36:09.268Z,102718.03
2023-05-18T05:38:36.110Z,102701.44
2023-05-18T05:41:02.886Z,102698.75
2023-05-18T05:43:29.628Z,102699.53
2023-05-18T05:45:56.134Z,102725.66
2023-05-18T05:48:22.795Z,102720.34
2023-05-18T05:50:49.620Z,102729.03
2023-05-18T05:53:19.892Z,102739.44
2023-05-18T05:55:46.521Z,102723.69
2023-05-18T05:58:13.218Z,102719.31
2023-05-18T06:00:39.865Z,102730.53
2023-05-18T06:03:06.423Z,102737.47
2023-05-18T06:05:33.343Z,102736.56
2023-05-18T06:08:00.092Z,102713.94
2023-05-18T06:10:26.757Z,102735.69
2023-05-18T06:12:53.297Z,102740.84
2023-05-18T06:15:19.877Z,102746.94
2023-05-18T06:17:47.380Z,102746.88
2023-05-18T06:20:14.160Z,102743.31
2023-05-18T06:22:41.217Z,102743.31
2023-05-18T06:25:08.491Z,102761.53
2023-05-18T06:27:35.103Z,102765.91
2023-05-18T06:30:01.725Z,102745.75
2023-05-18T06:32:28.332Z,102767.41
2023-05-18T06:34:54.896Z,102768.22
2023-05-18T06:37:21.413Z,102754.16
2023-05-18T06:39:48.052Z,102762.78
2023-05-18T06:42:14.562Z,102742.72
2023-05-18T06:44:41.261Z,102756.56
2023-05-18T06:47:08.115Z,102732.16
2023-05-18T06:49:34.664Z,102753.78
2023-05-18T06:52:01.236Z,102732.00
2023-05-18T06:54:29.569Z,102750.13
2023-05-18T06:56:56.217Z,102755.09
2023-05-18T06:59:23.119Z,102731.38
2023-05-18T07:01:49.754Z,102747.81
2023-05-18T07:04:17.808Z,102740.63
2023-05-18T07:06:44.444Z,102756.09
2023-05-18T07:09:11.111Z,102740.31
2023-05-18T07:11:37.635Z,102745.44
2023-05-18T07:14:04.262Z,102759.06
2023-05-18T07:16:31.297Z,102729.31
2023-05-18T07:18:58.907Z,102764.78
2023-05-18T07:21:26.308Z,102760.38
2023-05-18T07:23:53.076Z,102740.28
2023-05-18T07:26:19.999Z,102768.75
2023-05-18T07:28:47.825Z,102749.53
2023-05-18T07:31:16.785Z,102761.56
2023-05-18T07:33:44.610Z,102743.25
2023-05-18T07:36:11.335Z,102754.38
2023-05-18T07:38:37.878Z,102746.44
2023-05-18T07:41:04.574Z,102761.16
2023-05-18T07:43:31.246Z,102766.41
2023-05-18T07:45:57.991Z,102776.78
2023-05-18T07:48:24.528Z,102749.72
2023-05-18T07:50:51.727Z,102761.88
2023-05-18T07:53:18.642Z,102764.38
2023-05-18T07:55:45.782Z,102762.44
2023-05-18T07:58:13.395Z,102768.38
2023-05-18T08:00:40.104Z,102783.72
2023-05-18T08:03:06.956Z,102770.47
2023-05-18T08:05:34.089Z,102768.28
2023-05-18T08:08:00.827Z,102764.28
2023-05-18T08:10:27.500Z,102762.97
2023-05-18T08:12:54.156Z,102781.81
2023-05-18T08:15:20.916Z,102787.91
2023-05-18T08:17:47.730Z,102772.88
2023-05-18T08:20:14.348Z,102768.19
2023-05-18T08:22:41.209Z,102760.91
2023-05-18T08:25:10.155Z,102750.28
2023-05-18T08:27:36.955Z,102749.22
2023-05-18T08:30:03.665Z,102755.94
2023-05-18T08:32:30.280Z,102769.38
2023-05-18T08:34:56.919Z,102762.06
2023-05-18T08:37:29.060Z,102751.38
2023-05-18T08:39:55.876Z,102742.59
2023-05-18T08:42:34.774Z,102769.03
2023-05-18T08:45:16.908Z,102761.63
2023-05-18T08:47:44.516Z,102746.34
2023-05-18T08:50:16.008Z,102740.69
2023-05-18T08:52:47.139Z,102752.00
2023-05-18T08:55:15.653Z,102743.50
2023-05-18T08:57:43.861Z,102743.16
2023-05-18T09:00:12.155Z,102721.00
2023-05-18T09:02:39.440Z,102752.53
2023-05-18T09:05:07.419Z,102739.59
2023-05-18T09:07:34.326Z,102738.22
2023-05-18T09:10:02.267Z,102739.59
2023-05-18T09:12:30.133Z,102746.88
2023-05-18T09:14:58.119Z,102726.53
2023-05-18T09:17:24.811Z,102723.66
2023-05-18T09:19:51.630Z,102735.03
2023-05-18T09:22:20.527Z,102728.03
2023-05-18T09:24:50.443Z,102721.28
2023-05-18T09:27:17.172Z,102737.44
2023-05-18T09:29:54.623Z,102751.06
2023-05-18T09:32:22.565Z,102746.19
2023-05-18T09:34:49.326Z,102730.50
2023-05-18T09:37:17.620Z,102734.63
2023-05-18T09:39:44.989Z,102728.41
2023-05-18T09:42:12.282Z,102747.31
2023-05-18T09:44:38.827Z,102740.75
2023-05-18T09:47:10.556Z,102747.53
2023-05-18T09:49:37.753Z,102733.34
2023-05-18T09:52:09.125Z,102738.16
2023-05-18T09:54:37.559Z,102729.94
2023-05-18T09:59:36.828Z,102740.34
2023-05-18T10:02:09.803Z,102728.09
2023-05-18T10:04:40.552Z,102740.34
2023-05-18T10:07:11.819Z,102732.47
2023-05-18T10:09:41.630Z,102727.13
2023-05-18T10:12:16.869Z,102724.19
2023-05-18T10:14:44.977Z,102729.09
2023-05-18T10:17:15.756Z,102723.63
2023-05-18T10:19:45.098Z,102707.81
2023-05-18T10:22:13.256Z,102702.25
2023-05-18T10:24:45.198Z,102712.72
2023-05-18T10:27:17.745Z,102712.94
2023-05-18T10:29:45.009Z,102713.59
2023-05-18T10:32:13.013Z,102723.56
2023-05-18T10:34:41.973Z,102720.56
2023-05-18T10:37:11.920Z,102711.38
2023-05-18T10:39:42.438Z,102715.84
2023-05-18T10:42:10.256Z,102699.09
2023-05-18T10:44:37.607Z,102701.56
2023-05-18T10:47:08.394Z,102705.41
2023-05-18T10:49:36.320Z,102711.81
2023-05-18T10:52:03.857Z,102718.28
2023-05-18T10:54:30.728Z,102714.00
2023-05-18T10:56:57.773Z,102696.88
2023-05-18T10:59:24.441Z,102702.47
2023-05-18T11:01:53.900Z,102720.59
2023-05-18T11:04:27.434Z,102724.38
2023-05-18T11:06:59.174Z,102705.28
2023-05-18T11:09:26.705Z,102713.41
2023-05-18T11:11:56.657Z,102717.81
2023-05-18T11:14:28.595Z,102717.19
2023-05-18T11:17:25.829Z,102705.91
2023-05-18T11:20:05.192Z,102714.84
2023-05-18T11:22:51.814Z,102717.66
2023-05-18T11:25:24.745Z,102720.41
2023-05-18T11:27:52.894Z,102693.97
2023-05-18T11:30:37.446Z,102720.81
2023-05-18T11:33:11.338Z,102707.59
2023-05-18T11:36:04.618Z,102714.84
2023-05-18T11:38:52.710Z,102710.38
2023-05-18T11:41:31.565Z,102714.53
2023-05-18T11:44:06.901Z,102710.09
2023-05-18T11:46:33.957Z,102700.97
2023-05-18T11:49:07.087Z,102709.91
2023-05-18T11:51:34.191Z,102697.19
2023-05-18T11:54:01.620Z,102687.88
2023-05-18T11:56:33.767Z,102675.63
2023-05-18T11:59:14.313Z,102704.16
2023-05-18T12:01:41.895Z,102691.00
2023-05-18T12:04:09.778Z,102685.66
2023-05-18T12:06:38.156Z,102687.47
2023-05-18T12:09:06.048Z,102686.75
2023-05-18T12:11:33.261Z,102675.63
2023-05-18T12:14:01.072Z,102671.34
2023-05-18T12:16:29.524Z,102666.31
2023-05-18T12:18:57.317Z,102673.81
2023-05-18T12:21:26.693Z,102664.97
2023-05-18T12:24:03.487Z,102672.97
2023-05-18T12:26:31.888Z,102663.88
2023-05-18T12:29:02.052Z,102666.50
2023-05-18T12:31:30.094Z,102650.66
2023-05-18T12:33:59.249Z,102656.75
2023-05-18T12:36:27.348Z,102640.47
2023-05-18T12:38:54.047Z,102658.63
2023-05-18T12:41:27.681Z,102659.31
2023-05-18T12:43:55.007Z,102662.63
2023-05-18T12:46:25.149Z,102656.81
2023-05-18T12:49:01.517Z,102647.56
2023-05-18T12:51:35.800Z,102629.84
2023-05-18T12:54:03.763Z,102651.16
2023-05-18T12:57:02.005Z,102633.34
2023-05-18T12:59:29.639Z,102615.34
2023-05-18T13:01:56.934Z,102630.34
2023-05-18T13:04:24.056Z,102626.81
2023-05-18T13:06:50.821Z,102615.19
2023-05-18T13:09:17.648Z,102620.03
2023-05-18T13:12:00.245Z,102627.09
2023-05-18T13:14:38.136Z,102612.28
2023-05-18T13:17:09.412Z,102599.66
2023-05-18T13:19:37.135Z,102599.56
2023-05-18T13:22:04.687Z,102602.63
2023-05-18T13:24:32.299Z,102596.84
2023-05-18T13:27:02.919Z,102597.41
2023-05-18T13:29:29.708Z,102606.56
2023-05-18T13:31:56.341Z,102595.03
2023-05-18T13:34:22.998Z,102606.81
2023-05-18T13:36:49.550Z,102616.41
2023-05-18T13:39:17.276Z,102607.38
2023-05-18T13:41:43.892Z,102602.03
2023-05-18T13:44:16.037Z,102605.84
2023-05-18T13:46:56.513Z,102564.00
2023-05-18T13:49:23.130Z,102589.34
2023-05-18T13:51:49.788Z,102605.66
2023-05-18T13:54:16.385Z,102580.81
2023-05-18T13:56:43.208Z,102603.19
2023-05-18T13:59:09.926Z,102596.25
2023-05-18T14:01:36.636Z,102598.66
2023-05-18T14:04:03.339Z,102585.34
2023-05-18T14:06:29.923Z,102582.06
2023-05-18T14:08:56.657Z,102591.88
2023-05-18T14:11:23.304Z,102587.59
2023-05-18T14:13:50.639Z,102575.94
2023-05-18T14:16:17.316Z,102575.63
2023-05-18T14:18:43.910Z,102586.13
2023-05-18T14:21:10.812Z,102583.72
2023-05-18T14:23:37.666Z,102582.13
2023-05-18T14:26:04.438Z,102573.97
2023-05-18T14:28:30.976Z,102577.50
2023-05-18T14:30:57.705Z,102577.91
2023-05-18T14:33:24.376Z,102561.28
2023-05-18T14:35:51.279Z,102569.41
2023-05-18T14:38:18.142Z,102546.75
2023-05-18T14:40:44.790Z,102542.47
2023-05-18T14:43:11.474Z,102555.38
2023-05-18T14:45:38.075Z,102554.56
2023-05-18T14:48:05.232Z,102566.06
2023-05-18T14:50:32.344Z,102541.72
2023-05-18T14:53:00.103Z,102547.53
2023-05-18T14:55:26.888Z,102543.03
2023-05-18T14:57:53.527Z,102547.50
2023-05-18T15:00:20.973Z,102530.72
2023-05-18T15:02:47.761Z,102546.91
2023-05-18T15:05:14.486Z,102546.78
2023-05-18T15:07:41.362Z,102551.66
2023-05-18T15:10:08.676Z,102543.63
2023-05-18T15:12:35.235Z,102539.25
2023-05-18T15:15:02.067Z,102525.41
2023-05-18T15:17:31.296Z,102529.59
2023-05-18T15:19:58.042Z,102525.63
2023-05-18T15:22:24.798Z,102527.72
2023-05-18T15:24:51.683Z,102542.47
2023-05-18T15:27:18.786Z,102523.56
2023-05-18T15:29:46.815Z,102515.25
2023-05-18T15:32:13.651Z,102528.25
2023-05-18T15:34:40.415Z,102545.09
2023-05-18T15:37:07.066Z,102523.47
2023-05-18T15:39:33.644Z,102519.31
2023-05-18T15:42:00.329Z,102517.19
2023-05-18T15:44:29.381Z,102520.69
2023-05-18T15:46:56.766Z,102513.00
2023-05-18T15:49:25.471Z,102537.56
2023-05-18T15:51:52.107Z,102515.50
2023-05-18T15:54:19.012Z,102533.38
2023-05-18T15:56:45.799Z,102509.09
2023-05-18T15:59:12.511Z,102495.09
2023-05-18T16:01:39.693Z,102498.84
2023-05-18T16:04:06.506Z,102512.41
2023-05-18T16:06:35.533Z,102512.94
2023-05-18T16:09:02.251Z,102510.91
2023-05-18T16:11:28.760Z,102501.78
2023-05-18T16:13:57.127Z,102506.09
2023-05-18T16:16:25.298Z,102511.78
2023-05-18T16:18:52.525Z,102506.13
2023-05-18T16:21:19.565Z,102511.25
2023-05-18T16:23:46.757Z,102514.03
2023-05-18T16:26:13.776Z,102516.97
2023-05-18T16:28:40.654Z,102517.22
2023-05-18T16:31:11.954Z,102515.06
2023-05-18T16:33:38.947Z,102517.31
2023-05-18T16:36:06.271Z,102513.56
2023-05-18T16:38:37.897Z,102489.88
2023-05-18T16:41:05.548Z,102515.88
2023-05-18T16:43:32.967Z,102503.94
2023-05-18T16:45:59.613Z,102506.09
2023-05-18T16:48:26.151Z,102501.31
2023-05-18T16:50:52.736Z,102501.75
2023-05-18T16:53:19.409Z,102509.50
2023-05-18T16:55:46.204Z,102507.06
2023-05-18T16:58:12.713Z,102500.31
2023-05-18T17:00:39.286Z,102496.97
2023-05-18T17:03:05.873Z,102511.06
2023-05-18T17:05:34.525Z,102504.28
2023-05-18T17:08:01.138Z,102503.91
2023-05-18T17:10:27.724Z,102488.72
2023-05-18T17:12:55.324Z,102507.38
2023-05-18T17:15:21.987Z,102503.41
2023-05-18T17:17:48.619Z,102502.97
2023-05-18T17:20:15.225Z,102498.06
2023-05-18T17:22:41.819Z,102503.59
2023-05-18T17:25:08.852Z,102505.47
2023-05-18T17:27:35.821Z,102496.09
2023-05-18T17:30:02.345Z,102498.81
2023-05-18T17:32:28.874Z,102497.25
2023-05-18T17:34:55.435Z,102503.69
2023-05-18T17:37:22.115Z,102506.53
2023-05-18T17:39:48.774Z,102484.16
2023-05-18T17:42:16.073Z,102487.72
2023-05-18T17:44:42.636Z,102510.53
2023-05-18T17:47:09.195Z,102502.03
2023-05-18T17:49:35.824Z,102481.50
2023-05-18T17:52:03.707Z,102485.34
2023-05-18T17:54:30.508Z,102495.81
2023-05-18T17:56:57.065Z,102485.69
2023-05-18T17:59:23.725Z,102498.03
2023-05-18T18:01:50.598Z,102512.06
2023-05-18T18:04:17.272Z,102495.66
2023-05-18T18:06:45.436Z,102505.28
2023-05-18T18:09:12.012Z,102506.34
2023-05-18T18:11:38.557Z,102494.34
2023-05-18T18:14:06.219Z,102516.31
2023-05-18T18:16:34.161Z,102527.75
2023-05-18T18:19:00.879Z,102505.28
2023-05-18T18:21:27.426Z,102497.78
2023-05-18T18:23:54.032Z,102516.69
2023-05-18T18:26:21.670Z,102517.03
2023-05-18T18:28:48.204Z,102528.59
2023-05-18T18:31:15.276Z,102512.41
2023-05-18T18:33:44.037Z,102537.78
2023-05-18T18:36:10.742Z,102533.69
2023-05-18T18:38:37.478Z,102522.06
2023-05-18T18:41:05.108Z,102535.22
2023-05-18T18:43:31.785Z,102538.88
2023-05-18T18:45:59.185Z,102537.34
2023-05-18T18:48:25.938Z,102519.38
2023-05-18T18:50:53.182Z,102550.75
2023-05-18T18:53:19.815Z,102529.22
2023-05-18T18:55:46.496Z,102513.06
2023-05-18T18:58:13.085Z,102555.84
2023-05-18T19:00:39.721Z,102537.88
2023-05-18T19:03:06.355Z,102552.81
2023-05-18T19:05:33.388Z,102543.53
2023-05-18T19:08:01.833Z,102553.06
2023-05-18T19:10:28.472Z,102550.66
2023-05-18T19:12:55.109Z,102538.72
2023-05-18T19:15:21.977Z,102564.84
2023-05-18T19:17:53.577Z,102553.75
2023-05-18T19:20:20.852Z,102549.75
2023-05-18T19:22:47.509Z,102565.50
2023-05-18T19:25:14.282Z,102573.56
2023-05-18T19:27:40.879Z,102564.88
2023-05-18T19:30:07.976Z,102566.78
2023-05-18T19:32:34.618Z,102558.28
2023-05-18T19:35:01.292Z,102578.38
2023-05-18T19:37:27.868Z,102575.91
2023-05-18T19:39:54.709Z,102576.03
2023-05-18T19:42:21.251Z,102573.72
2023-05-18T19:44:47.842Z,102584.28
2023-05-18T19:47:14.486Z,102576.69
2023-05-18T19:49:41.084Z,102571.69
2023-05-18T19:52:09.462Z,102577.16
2023-05-18T19:54:36.901Z,102599.94
2023-05-18T19:57:03.593Z,102601.94
2023-05-18T19:59:30.139Z,102590.03
2023-05-18T20:01:59.804Z,102611.88
2023-05-18T20:04:28.362Z,102603.31
2023-05-18T20:06:58.074Z,102609.50
2023-05-18T20:09:24.611Z,102600.09
2023-05-18T20:11:51.219Z,102604.53
2023-05-18T20:14:17.818Z,102603.75
2023-05-18T20:16:44.358Z,102607.34
2023-05-18T20:19:12.738Z,102594.56
2023-05-18T20:21:40.839Z,102600.66
2023-05-18T20:24:07.578Z,102606.88
2023-05-18T20:26:34.159Z,102594.03
2023-05-18T20:29:00.683Z,102591.53
2023-05-18T20:31:27.385Z,102617.72
2023-05-18T20:33:57.045Z,102601.41
2023-05-18T20:36:25.209Z,102611.94
2023-05-18T20:38:53.013Z,102629.28
2023-05-18T20:41:20.885Z,102606.75
2023-05-18T20:43:48.323Z,102625.19
2023-05-18T20:46:15.022Z,102619.94
2023-05-18T20:48:42.481Z,102631.38
2023-05-18T20:51:15.244Z,102627.13
2023-05-18T20:53:44.635Z,102628.13
2023-05-18T20:56:12.347Z,102630.00
2023-05-18T20:58:42.541Z,102635.28
2023-05-18T21:01:10.841Z,102611.97
2023-05-18T21:03:38.485Z,102639.84
2023-05-18T21:06:05.565Z,102641.66
2023-05-18T21:08:32.566Z,102641.78
2023-05-18T21:10:59.200Z,102637.59
2023-05-18T21:13:26.098Z,102634.16
2023-05-18T21:15:52.856Z,102646.38
2023-05-18T21:18:19.597Z,102649.97
2023-05-18T21:20:46.286Z,102619.72
2023-05-18T21:23:13.373Z,102649.53
2023-05-18T21:25:39.950Z,102633.81
2023-05-18T21:28:07.155Z,102635.56
2023-05-18T21:30:34.022Z,102634.69
2023-05-18T21:33:01.021Z,102623.41
2023-05-18T21:35:27.635Z,102629.50
2023-05-18T21:37:54.239Z,102631.25
2023-05-18T21:40:20.912Z,102643.50
2023-05-18T21:42:47.529Z,102621.75
2023-05-18T21:45:14.517Z,102646.25
2023-05-18T21:47:41.316Z,102635.00
2023-05-18T21:50:08.350Z,102649.84
2023-05-18T21:52:34.954Z,102638.66
2023-05-18T21:55:01.519Z,102648.34
2023-05-18T21:57:28.047Z,102617.13
2023-05-18T21:59:54.641Z,102637.19
2023-05-18T22:02:21.266Z,102645.97
2023-05-18T22:04:47.803Z,102652.09
2023-05-18T22:07:15.515Z,102653.03
2023-05-18T22:09:42.151Z,102654.78
2023-05-18T22:12:08.747Z,102651.44
2023-05-18T22:14:35.857Z,102646.22
2023-05-18T22:17:03.136Z,102649.75
2023-05-18T22:19:29.807Z,102647.19
2023-05-18T22:21:56.459Z,102651.53
2023-05-18T22:24:23.209Z,102644.53
2023-05-18T22:26:49.736Z,102645.47
2023-05-18T22:29:16.257Z,102649.06
2023-05-18T22:31:42.951Z,102638.59
2023-05-18T22:34:09.633Z,102646.50
2023-05-18T22:36:36.256Z,102634.41
2023-05-18T22:39:02.898Z,102644.84
2023-05-18T22:41:29.547Z,102637.91
2023-05-18T22:43:56.101Z,102634.53
2023-05-18T22:46:22.892Z,102632.03
2023-05-18T22:48:49.639Z,102643.38
2023-05-18T22:51:16.518Z,102628.59
2023-05-18T22:53:43.069Z,102627.78
2023-05-18T22:56:09.592Z,102642.63
2023-05-18T22:58:36.234Z,102645.28
2023-05-18T23:01:03.164Z,102647.09
2023-05-18T23:03:29.708Z,102636.69
2023-05-18T23:05:56.420Z,102648.13
2023-05-18T23:08:23.827Z,102647.28
2023-05-18T23:10:50.700Z,102650.78
2023-05-18T23:13:17.313Z,102645.63
2023-05-18T23:15:44.439Z,102647.28
2023-05-18T23:18:12.464Z,102657.81
2023-05-18T23:20:39.198Z,102656.97
2023-05-18T23:23:05.770Z,102658.75
2023-05-18T23:25:32.297Z,102656.13
2023-05-18T23:27:58.967Z,102653.59
2023-05-18T23:30:25.736Z,102657.16
2023-05-18T23:32:53.151Z,102647.53
2023-05-18T23:35:20.400Z,102656.31
2023-05-18T23:37:50.128Z,102655.44
2023-05-18T23:40:19.150Z,102655.53
2023-05-18T23:42:46.326Z,102659.03
2023-05-18T23:45:13.492Z,102640.81
2023-05-18T23:47:40.547Z,102654.75
2023-05-18T23:50:08.188Z,102653.00
2023-05-18T23:52:35.354Z,102653.06
2023-05-18T23:55:03.180Z,102646.13
2023-05-18T23:57:30.038Z,102617.44
2023-05-18T23:59:58.117Z,102639.22
